Race Results for
Snow Summit Amateur Cup 1-4
Snow Summit Ski Resort, CA
(Event Information)
This is a non-competitive event
Downhill on 08/23/2003

Note: Ranking points are NOT upgrade points. An explanation of ranking points can be found here.


Men - Junior - JR - 1-10

 Place NameCity, StateTime USAC #BibTeam
1CHAZ VALENZUELA   27:27.6  888 KHS

Men - Junior - JR - 11-12

 Place NameCity, StateTime USAC #BibTeam
1Blake Carney   Camarillo, CA12:50.1 200586  795 
2Kyle Meinert   13:36.9 183343  764 
3Kody Adams   Hesperia, CA13:41.3 181187  873 DOWNHILL X
4Eddie Vigil   Las Vegas, NV15:38.2 199563  858 

Men - Junior - JR - 13-14

 Place NameCity, StateTime USAC #BibTeam
1Ryan Anderson   Poway, CA11:11.0 189630  765 123BIKES.C
2John Swanguen   San Diego11:23.9 175203  790 SPY/COLLEG
3Larry Pennington   Poway, CA11:33.5 191748  746 BEYOND BIK
4MIKE BARRETT   11:47.9  859 
5COLBY ELLIOT   12:17.4  821 DIAMOND BA
6KENNETH FOLGNER   12:40.0  825 
7EVAN MUNIZ   15:01.0  865 

Men - Junior - JR - 15-16

 Place NameCity, StateTime USAC #BibTeam
1JORDAN LAUGHLIN   11:00.8  870 123BIKES/S
2Brian Hair   Dillon, CO11:09.9 192667  854 
3ERIC EVANS   11:41.9  893 
4BIKRAM RANA   11:44.0  827 
5EMILIO SARTORI   11:58.8  885 
6ANDREW MUNIZ   14:20.3  864 
7AUSTIN OFFE   14:57.9  857 
DNFPAUL YUN   51:51.1  826 

Men - Junior - JR - 17-18

 Place NameCity, StateTime USAC #BibTeam
1Chandler Irwin   Malibu, CA10:58.1 165204  730 HOME CHEK
2Cody Smith   Las Vegas, NV10:58.3 192887  856 BIKE SHOP
3Miles LaMon   San Luis Obispo, CA11:11.6 187271  822 SLO-CAL
4Kevin Moynihan   Davis, CA11:13.2 227063  831 
5Taylor Mohr   San Luis Obispo, CA11:28.1 200754  835 
6KURT SIEVER   11:49.9  779 
7BRANDON PIERCE   11:58.1  892 
8Neco Hansen   Pasadena, CA12:02.3 162828  871 CHKRD FLAG
9KURT JOHNSON   12:03.3  814 
10JOHN TARTOL   12:22.1  896 HOME CHEK
11Taurino Tadeo   12:25.8 200099  867 
12Michael Kelley   Moorpark, CA12:27.5 162080  723 KHS BICYCL
13DANIEL JACOBSON   13:04.1  797 
DNFNick Kavass   Crested Butte, CO02:38.2 201147  811 
DNFMIKE VIGLIONE   51:51.1  828 

Men - Junior - JR - JuniorX

 Place NameCity, StateTime USAC #BibTeam
1Ryan Condrashoff   Larkspur, CA08:18.9 197784  232 PLANET X/S
2Kyle Adams   Coeur D Alene, ID08:21.4 181185  283 ROMIC/EVS
3Sean McClendon   Pine Valley, CA08:21.7 159018  253 123BIKE/SM
4Curtis Zamora   Walnut, CA08:36.6 176182  252 ATOMIC/DEU
5Michael Haderer   Concord, CA08:37.5 190065  230 PLANET X/S
6Michael Hill   Vista, CA08:44.9 149952  248 HAUS
7Hank Cadle   Lake Forest, CA08:46.1 191080  264 
8DAN CARRINGTON   08:49.7  220 
9SAWYER STEWART   09:15.8  279 NO BRAKES
10Eigil Bisgaard   Alpine, CA21:28.3 179747  267 

Men - Pro - Senior

 Place NameCity, StateTime USAC #BibTeam
1DAVID KLAASSENVANOORSCH   Riverside, CA07:43.8 154642  235 INTENSE/SP
2Brian Long   San Carlos, CA07:56.8 82712  282 FINAL CAUS

Men - SM - Senior

 Place NameCity, StateTime USAC #BibTeam
1Cody Warren   Alpine, CA07:56.2 160802  294 HARO LEE D
2Ian Odom   Big Bear City, CA07:57.0 153418  247 ATOMLAB/TB
3PHIL MORSTAD   Overland, MO07:59.2 199884  257 
4GERRY CODY JR   Los Angeles, CA08:06.8 183275  278 RFC/JB TEC
5Cory Gustafson   Vista, CA08:09.6 162777  239 FOES/AZONI
6Broc Wallace   Redlands, CA08:21.6 198553  244 
7James Colella   Joshua Tree, CA08:23.0 135214  237 EMPIRE
8Steven Herrmann   Oceanside, CA08:28.6 15985  272 GIANT/CAMB
9Deke Williams   Thousand Oaks, CA08:29.5 38332  290 WILMANCO

Men - EX - Senior - 19-24

 Place NameCity, StateTime USAC #BibTeam
1Landon Taylor   Big Bear Lake, CA08:23.8 172596  234 TEAM BIG B
2Jermaine Brown   Duarte, CA08:39.7 182972  285 H&S BIKES
3MATT CONDRASHOFF   Concord, CA08:40.3 192133  233 PLANET X
4MARTIN NAVARRO   08:46.5  236 
5Diogo Zanetti   Murrieta, CA08:52.8 189967  218 SKIN INDUS
6DENNIS JOHNHOUSTON   09:01.1  295 
7Michael Brown   Temecula, CA14:56.8 201801  231 

Men - EX - Senior - 25-29

 Place NameCity, StateTime USAC #BibTeam
1Chris Kief   Longmont, CO08:16.4 78093  222 
2CRAIG HARVEY   08:32.3  243 
3Brian Wallace   Livermore, CA08:39.7 113894  227 HEADFIRST
4DAMIEN SMITH   08:42.0  204 
5Stephen Zvorsky   Simi Valley, CA08:59.0 167804  275 
6Evelio Suarez   Costa Mesa, CA09:02.0 162000  293 KHS BICYCL
7PAUL CRISWELL   09:04.8  261 
8Wilmer Stillens   Sanger, CA09:42.9 177720  229 HEADFIRST
9Jason Scholz   Hacienda Heights, CA09:48.9 150204  246 
10Raymond Provencio   Huntington Beach, CA09:56.8 122874  221 NICOLAI
11Jeff Kuhn   Prescott Valley, AZ16:43.6 213157  206 DIRTWORKS

Men - EX - Master - 30-34

 Place NameCity, StateTime USAC #BibTeam
1Aaron Potter   Phoenix, AZ08:24.6 127217  273 AZONIC/KEN
2Ken Gioeli   Idyllwild, CA08:27.1 182961  200 ELLSWORTH
3Jim Beckman   Phoenix, AZ08:28.1 154001  268 TITUS CYCL
4Orven Zaragoza   Chula Vista, CA08:29.8 153469  287 NICOLAI
5Jeff Horne   Santa Clarita, CA08:38.2 158317  201 AZONIC
6MIKE MOLINARI   West Point, NY08:42.6 188522  274 3M/WTB
7Leo Barillas   Palmdale, CA08:44.1 155978  214 TEAM CFR
8Jason Simpson   La Verne, CA08:51.0 98126  240 
9CHNASAMONE KEOVILAYHONG   08:55.8  289 
10Jason Chambers   Garden Grove, CA09:01.0 158291  209 ROMIC RACI
11Ian Fitzgerald   West Hills, CA09:01.4 180934  292 
12Armando Vidales   Alpine, CA09:08.5 148840  476 KAOS
13DAVE MULLEN   San Diego, CA09:08.6 142157  270 FUNPIG
14Brad Lawrence   Whittier, CA09:10.5 180054  277 
15David Budy   Bakersfield, CA09:11.7 158917  259 
16Douglas Clark   Westchester, CA09:19.4 150064  262 KHS
17Jeff Bonisa   San Clemente, CA09:26.9 181248  210 SURFACE TO
18KEN WOOD   09:50.5  256 TEAM NINJA

Men - EX - Master - 35-39

 Place NameCity, StateTime USAC #BibTeam
1Terry Maddox   Blythe, CA08:24.0 157171  291 CHUMBA WUM
2Patrick Grassmann   Laguna Niguel, CA08:32.1 183354  217 
3Kevin Matthes   Escondido, CA08:34.0 112091  250 BEYOND BIK
4Daniel Lyons   Penngrove, CA08:37.8 175848  276 LYONS ELET
5Michael Thompson   Murrieta, CA08:42.3 172219  180 FUN PIG/WR
6Mark Goebel   West Hills, CA08:49.5 175243  225 
7JOE SIMPSON   09:02.9  241 
8Bradley Beck   San Juan Capistrano, CA09:06.0 104241  288 
9Vince Laker   Corona, CA09:20.1 117826  266 CYCLERY
10David Brown   San Diego, CA09:25.5 179549  254 AZONIC
11Brett Butler   Manhattan Beach, CA09:57.8 135242  255 TURNER/ROM

Men - EX - Master - 40-44

 Place NameCity, StateTime USAC #BibTeam
1John Swanguen   San Diego, CA08:23.9 34733  174 COLLEGE CY
2Moses Cruz   Tempe, AZ08:47.6 132796  224 NO BRAKES
3Craig Rossi   Riverside, CA08:52.8 113198  189 
4Tom Richardson   Newport Beach, CA08:53.7 159076  280 WCWC
5Patrick Beauregard   Corona Hills, CA08:57.7 3053  260 
DNFBlake Manahl   Loma Linda, CA51:51.1 83327  185 AZONIC

Men - EX - Master - 45-49

 Place NameCity, StateTime USAC #BibTeam
1GARY DEWESSE   Phoenix, AZ08:56.4 90189  226 NO BRAKES
2Bobby Bondurant   Big Bear City, CA09:12.6 107266  238 DEPRAVEDAL

Men - EX - Master - 50-54

 Place NameCity, StateTime USAC #BibTeam
1Steve Bird   Sherman Oaks, CA08:49.5 3738  187 I MARTIN I
DNFSteve Spillman   Glendale, CA51:51.1 183726  263 H&S BIKES

Men - SP - Senior - 19-24

 Place NameCity, StateTime USAC #BibTeam
1Vince Catalano   Las Vegas, NV10:59.8 192659  509 HANEBRINK
2Andre Sanches   Trabuco Canyon, CA11:03.1 194967  505 NOFEAR/SPO
3Rafer Willenberg   Anaheim, CA11:04.8 186296  497 STANFORD
4Troy Wilson   Rancho Santa Marg, CA11:07.9 120220  514 
5WOLF ARMSTRONG   11:10.1  545 
6Jim Kenz   Monrovia, CA11:11.7 155685  526 INCYCLE
7John Cary   Westlake Village, CA11:16.3 177651  529 MAXXIS/COR
8NICHOLAS FEDUSKA   11:34.3  516 ATOMIC BIK
9JEFF LEMESHEWSKY   11:44.7  502 
10Gregg Barnard   Irvine, CA12:00.2 183280  527 G-FORCE RA
DNFAaron Calderon   Los Angeles, CA02:09.3 196429  549 
DNFDan Nelson   San Francisco, CA51:51.1 191072  492 NTP RACING
DNFMichael Heaney   Huntington Beach, CA51:51.1 181182  485 HAUS INTL
DNFNicholas Ducharme   Lake Forest, CA51:51.1 174855  489 FYR DESIGN

Men - SP - Senior - 25-29

 Place NameCity, StateTime USAC #BibTeam
1TRENT DANIELS   10:41.8  530 STRAWBERRY
2Mike Openshaw   Alta Loma, CA10:43.8 191044  460 
3DEREK LEWIS   10:44.7  531 SCANDAL BI
4STEVEN BUSHER   10:51.7  533 I.E. BIKES
5Dan Meeks   Forest Falls, CA10:57.3 200584  464 FUNPIG
6PETER CARTY   11:06.0  539 
7DAVID KENYON   11:27.6  495 TM BALLIST
8Ian Wilkinson   San Luis Obispo, CA11:36.4 176184  532 AZONIC/ATO
9Blaine Simpson   Ventura, CA11:53.4 170671  513 XSTREAM AD
10Geoff Barnard   Orange, CA11:58.2 172244  528 G-FORCE
11BENJAMIN AUSTIN   12:17.8  541 
12JAMES DE HAVEN   12:22.0  548 

Men - SP - Master - 30-34

 Place NameCity, StateTime USAC #BibTeam
1DARREN COX   10:42.9  538 
2GUY COMER   10:53.1  474 MECO/RITCH
3SCOTT MCCLOSKEY   10:55.3  540 SO CA 6 PA
4KORY YINGER   11:04.0  520 TFU
5Daniel McCormack   San Diego, CA11:16.5 23313  547 ZUMWALTS C
6Cruz Campos   Los Angeles, CA11:23.1 103371  512 AZONIC ONE
7Shawn Duex   Santa Barbara, CA11:24.5 201228  537 
8Gerrit Young   Pleasanton, CA11:33.6 213151  417 SPEED DEVE
9Brad Aubuchon   Aliso Viejo, CA11:51.2 185600  467 
10DAN MUTZ   11:53.0  523 
11ROB MALES   12:04.9  501 
DNFJACOBUS PINO   51:51.1  494 SKIVY STON

Men - SP - Master - 35-39

 Place NameCity, StateTime USAC #BibTeam
1Thomas Secor   Rialto, CA11:02.0 199506  517 TNT
2Michael Jones   Huntington Beach, CA11:17.9 183355  504 
3Mark Loya   Downey, CA11:28.4 165742  496 DENNISONS
4Barry Baker   Sun City, CA11:45.8 190997  521 TEAM FUN P
5Rick Sanchez   Tustin, CA12:07.7 192661  475 
6JONATHAN VITUET   12:35.4  503 

Men - SP - Master - 40-44

 Place NameCity, StateTime USAC #BibTeam
1David Collins   Chino Hills, CA11:10.8 96243  479 CHUMBA WUM
2PAUL KANE   11:20.4  453 
3JOHN ZINDROSKI   11:29.2  488 
4Steve Shojinaga   Granada Hills, CA11:54.6 162703  491 
5DEAN VILLAVERDE   11:58.8  508 
6SERGIO BRAVO   12:32.9  471 

Men - SP - Master - 45-49

 Place NameCity, StateTime USAC #BibTeam
1Seth Dawson   Fountain Hills, AZ12:08.0 83280  490 NO BRAKES
2Bradford Hair   San Luis Obispo, CA12:28.1 190572  515 

Men - SP - Master - 50-54

 Place NameCity, StateTime USAC #BibTeam
1Ernie Varnum   Valencia, CA11:57.4 143245  446 PRINCE
2Roger Gutierrez   Riverside, CA12:58.2 198502  510 NO BRAKES
3Eric Nohr   Corona, CA13:20.6 26194  536 SHERPA RAC
4Chris Milne   Hollister, CA13:20.8 79979  447 

Men - BG - Senior - 19-24

 Place NameCity, StateTime USAC #BibTeam
1TRAVIS EVE   10:49.4  753 
2Steven Puskas   Rockwall, TX11:45.7 187411  879 BACK ALLEY
3TANNER HENSLEY   12:03.0  894 
4JAMES NERO   12:12.1  853 
5STEVE BODENSICEK   06:00.2  900 
6SHAWN MARTINEZ   06:53.2  901 

Men - BG - Senior - 25-29

 Place NameCity, StateTime USAC #BibTeam
1AUSTIN SMITH   10:47.7  786 
2Jason Dimaggio   Anaheim, CA11:01.1 199852  841 INSANE IND
3TODD TENBROEK   11:09.0  740 FOX RACING
4T ASPREY   El Cajon, CA11:29.5 200103  813 
5Andrew Barlow   Carlsbad, CA11:33.5 233181  863 
6RAYMOND DOTTERER   11:35.9  869 BEYOND BIK
7NICK SUNSERI   11:41.6  775 INTENSE
8CHRIS HECK   11:47.2  833 
9DANIEL WILLIAMS   12:07.2  792 
10Eli Elliott   Anaheim, CA12:14.9 199851  843 T.F.U.
11JULLIEN THOMAS   12:20.9  839 
12BRANNELY TURPEN   12:59.3  868 
13Robert Elliott   El Cajon, CA14:10.5 192512  891 
DNFMarc Ladwig   Phillips Ranch, CA51:51.1 178859  796 AZONIC/ONE

Men - BG - Master - 30-34

 Place NameCity, StateTime USAC #BibTeam
1Rick Nunez   San Diego, CA11:06.3 202140  832 BEYOND BIK
2Robert Rose   Pahrump, NV11:39.6 200110  874 INTNS/FUNP
3SCOTT MCENTIRE   11:40.0  844 TFU
4Tim James   Temecula, CA12:13.8 180238  816 BACK ALLEY
5BEN DI EDUARDO   12:19.6  850 
6SEAN REDMAN   12:31.6  774 
7KEVIN ACUFF   15:25.8  823 PETLAND

Men - BG - Master - 35-39

 Place NameCity, StateTime USAC #BibTeam
1Don Doris   San Diego, CA11:08.6 199364  725 
2JEFFREY HOFFMAN   11:28.8  824 CYCLEWORKS
3CHRIS FRUCTUS   11:51.9  884 TAILLEFER
4Mark Finkelman   Alta Loma, CA12:16.4 194583  836 M&M GARAGE
5DAN PHILLIPS   12:24.1  880 DEES NUTS
6Craig Bonner   Hollywood, CA12:46.7 213714  877 
7JIM SCHENCK   12:59.9  847 LATITUDE 3
8RICK RUDDELL   13:10.6  846 LATITUDE 3

Men - BG - Master - 35-99

 Place NameCity, StateTime USAC #BibTeam
1MICHAEL SCHUCK   12:31.5  886 MSSN CYCLR
2RICHARD ZANE   13:25.5  756 
3TONY EMRY   13:27.8  820 BACK ALLEY

Men - BG - Master - 40-44

 Place NameCity, StateTime USAC #BibTeam
1Bryan Butler   Costa Mesa, CA11:25.9 194527  791 SMITH SPT
2Thomas Jefferson   San Diego, CA11:35.7 192807  726 
3Steven Kaufman   Orange, CA12:23.1 193496  808 TRIAD GROU
4STEVE SHIMADA   12:24.1  815 
5CHRIS FEDUSKA   12:40.2  855 CALVERY CH

Men - BG - Master - 50-54

 Place NameCity, StateTime USAC #BibTeam
1Bruce Hendrickson   Tempe, AZ16:05.6 142281  809 MISSING LI
2STEVE ZAMORA   22:55.0  890 

Women - Junior - JR - JuniorX

 Place NameCity, StateTime USAC #BibTeam
1Rileigh Aller   Las Vegas, NV10:34.7 182947  271 NO BRAKES

Women - Pro - Senior

 Place NameCity, StateTime USAC #BibTeam
1Kristin Powers   Phoenix, AZ09:54.0 138601  242 NO BRAKES

Women - EX - Senior - 19-29

 Place NameCity, StateTime USAC #BibTeam
1Erin Gerke   Sanger, CA10:27.6 157056  228 HEAD FIRST

Women - EX - Master - 30-39

 Place NameCity, StateTime USAC #BibTeam
1Chelsea Redwood   Concord, NH09:27.0 187886  223 NO BRAKES
2Jill Hamilton   Bonsall, CA09:46.8 147881  265 HARO BICYC
3Colleen Baker   Pahrump, NV10:09.7 185527  269 INTNS/FUNP
4LISA REINHARDT   10:22.6  183 

Women - EX - Master - 40-49

 Place NameCity, StateTime USAC #BibTeam
1Nancy Harris   Riverside, CA10:27.9 175876  249 NO BRAKES

Women - SP - Senior - 19-29

 Place NameCity, StateTime USAC #BibTeam
1LATONYA AUSTIN   13:31.4  542 
2Christin Dahle   Costa Mesa, CA14:29.2 190168  544 

Women - SP - Master - 30-39

 Place NameCity, StateTime USAC #BibTeam
1LINDA TRAVIS   The Colony, TX13:39.7 185759  519 TURNER-ROM
2Kim Gilchrist   Phoenix, AZ14:28.7 127728  518 KHS

Women - BG - Senior - 19-29

 Place NameCity, StateTime USAC #BibTeam
1KOTE DRISCOLL   12:57.5  834 
2Essence Barton   Thousand Oak, CA13:50.4 179924  887 GIANT/DIRT
3STEPHANIE ATKINS   14:10.3  802 
4MAYA HATCH   19:00.1  732 

Women - BG - Master - 30-39

 Place NameCity, StateTime USAC #BibTeam
1Dawn Breda   Escondido, CA16:39.9 181227  849 FUNPIG
2Carolyn McCune   Hanford, CA16:58.4 200112  794 FUN PIG

Report missing or incorrect license numbers

Volkswagen
ShimanoBonk BreakerSierra NevadaSpyUSACDF
UCI USA Cycling is the official governing body for all disciplines of competitive cycling in the United States. The 501c3, membership-based organization aims both to achieve sustained success in international cycling competition and to grow competitive cycling in America while delivering an exceptional customer experience.
View Children's Online Privacy Protection Policy
US Olympic Committee